createdAt,value
2018-12-24T00:00:17.514Z,1000.83
2018-12-24T00:01:17.506Z,1000.85
2018-12-24T00:02:17.494Z,1000.83
2018-12-24T00:03:17.481Z,1000.83
2018-12-24T00:04:17.471Z,1000.73
2018-12-24T00:05:17.516Z,1000.72
2018-12-24T00:06:17.458Z,1000.77
2018-12-24T00:07:17.436Z,1000.77
2018-12-24T00:08:17.426Z,1000.83
2018-12-24T00:09:17.415Z,1000.84
2018-12-24T00:10:17.403Z,1000.88
2018-12-24T00:11:17.395Z,1000.91
2018-12-24T00:12:17.393Z,1000.89
2018-12-24T00:13:17.371Z,1000.93
2018-12-24T00:14:17.360Z,1000.89
2018-12-24T00:15:17.348Z,1000.90
2018-12-24T00:16:17.337Z,1000.96
2018-12-24T00:17:17.327Z,1001.01
2018-12-24T00:18:17.318Z,1001.01
2018-12-24T00:19:17.305Z,1001.06
2018-12-24T00:20:17.295Z,1001.10
2018-12-24T00:21:17.285Z,1001.08
2018-12-24T00:22:17.274Z,1001.09
2018-12-24T00:23:17.260Z,1001.09
2018-12-24T00:24:17.250Z,1001.04
2018-12-24T00:25:17.239Z,1001.10
2018-12-24T00:26:17.230Z,1001.10
2018-12-24T00:27:17.217Z,1001.19
2018-12-24T00:28:17.206Z,1001.24
2018-12-24T00:29:17.192Z,1001.20
2018-12-24T00:30:17.183Z,1001.20
2018-12-24T00:31:17.174Z,1001.23
2018-12-24T00:32:17.161Z,1001.22
2018-12-24T00:33:17.150Z,1001.34
2018-12-24T00:34:17.138Z,1001.30
2018-12-24T00:35:17.128Z,1001.31
2018-12-24T00:36:17.118Z,1001.36
2018-12-24T00:37:17.107Z,1001.33
2018-12-24T00:38:17.098Z,1001.36
2018-12-24T00:39:17.088Z,1001.40
2018-12-24T00:40:17.072Z,1001.46
2018-12-24T00:41:17.063Z,1001.45
2018-12-24T00:42:17.052Z,1001.45
2018-12-24T00:43:17.041Z,1001.51
2018-12-24T00:44:17.029Z,1001.64
2018-12-24T00:45:17.020Z,1001.63
2018-12-24T00:46:17.008Z,1001.74
2018-12-24T00:47:16.998Z,1001.61
2018-12-24T00:48:17.096Z,1001.67
2018-12-24T00:49:16.976Z,1001.72
2018-12-24T00:50:16.974Z,1001.77
2018-12-24T00:51:16.952Z,1001.84
2018-12-24T00:52:16.943Z,1001.88
2018-12-24T00:53:16.933Z,1001.96
2018-12-24T00:54:16.922Z,1001.91
2018-12-24T00:55:16.910Z,1001.97
2018-12-24T00:56:16.898Z,1002.05
2018-12-24T00:57:16.886Z,1002.10
2018-12-24T00:58:16.875Z,1002.12
2018-12-24T00:59:16.865Z,1002.08
2018-12-24T01:00:16.860Z,1002.11
2018-12-24T01:01:16.849Z,1002.24
2018-12-24T01:02:16.831Z,1002.25
2018-12-24T01:03:16.823Z,1002.29
2018-12-24T01:04:16.812Z,1002.34
2018-12-24T01:05:16.798Z,1002.42
2018-12-24T01:06:16.793Z,1002.38
2018-12-24T01:07:16.777Z,1002.39
2018-12-24T01:08:16.768Z,1002.36
2018-12-24T01:09:16.756Z,1002.43
2018-12-24T01:10:16.745Z,1002.51
2018-12-24T01:11:16.733Z,1002.54
2018-12-24T01:12:24.378Z,1002.57
2018-12-24T01:13:37.895Z,1002.55
2018-12-24T01:14:37.881Z,1002.59
2018-12-24T01:15:37.871Z,1002.65
2018-12-24T01:16:37.860Z,1002.75
2018-12-24T01:17:37.849Z,1002.82
2018-12-24T01:18:37.839Z,1002.86
2018-12-24T01:19:37.829Z,1002.87
2018-12-24T01:20:37.817Z,1002.81
2018-12-24T01:21:37.806Z,1002.83
2018-12-24T01:22:37.796Z,1002.87
2018-12-24T01:23:37.785Z,1002.94
2018-12-24T01:24:37.866Z,1002.96
2018-12-24T01:25:37.760Z,1003.03
2018-12-24T01:26:37.751Z,1003.05
2018-12-24T01:27:37.738Z,1003.06
2018-12-24T01:28:37.729Z,1003.08
2018-12-24T01:29:37.716Z,1003.07
2018-12-24T01:30:37.708Z,1003.05
2018-12-24T01:31:37.696Z,1003.05
2018-12-24T01:32:37.685Z,1003.11
2018-12-24T01:33:37.682Z,1003.11
2018-12-24T01:34:37.662Z,1003.18
2018-12-24T01:35:37.652Z,1003.20
2018-12-24T01:36:37.641Z,1003.23
2018-12-24T01:37:37.629Z,1003.29
2018-12-24T01:38:37.621Z,1003.35
2018-12-24T01:39:37.608Z,1003.34
2018-12-24T01:40:37.597Z,1003.33
2018-12-24T01:41:37.585Z,1003.34
2018-12-24T01:42:37.576Z,1003.35
2018-12-24T01:43:37.564Z,1003.42
2018-12-24T01:44:37.553Z,1003.51
2018-12-24T01:45:37.540Z,1003.62
2018-12-24T01:46:37.531Z,1003.66
2018-12-24T01:47:37.521Z,1003.70
2018-12-24T01:48:37.511Z,1003.71
2018-12-24T01:49:37.498Z,1003.70
2018-12-24T01:50:37.488Z,1003.70
2018-12-24T01:51:37.476Z,1003.77
2018-12-24T01:52:37.466Z,1003.88
2018-12-24T01:53:37.453Z,1003.87
2018-12-24T01:54:37.444Z,1003.92
2018-12-24T01:55:37.435Z,1003.91
2018-12-24T01:56:37.422Z,1003.95
2018-12-24T01:57:37.410Z,1003.94
2018-12-24T01:58:37.400Z,1003.90
2018-12-24T01:59:37.388Z,1003.90
2018-12-24T02:00:37.387Z,1003.89
2018-12-24T02:01:37.366Z,1003.98
2018-12-24T02:02:37.355Z,1004.00
2018-12-24T02:03:37.346Z,1004.01
2018-12-24T02:04:37.335Z,1003.98
2018-12-24T02:05:37.321Z,1003.98
2018-12-24T02:06:37.314Z,1003.98
2018-12-24T02:07:37.303Z,1004.01
2018-12-24T02:08:37.289Z,1004.10
2018-12-24T02:09:37.279Z,1004.17
2018-12-24T02:10:37.268Z,1004.21
2018-12-24T02:11:37.258Z,1004.21
2018-12-24T02:12:42.178Z,1004.21
2018-12-24T02:13:37.235Z,1004.23
2018-12-24T02:14:37.223Z,1004.22
2018-12-24T02:15:37.214Z,1004.22
2018-12-24T02:16:37.201Z,1004.29
2018-12-24T02:17:37.191Z,1004.30
2018-12-24T02:18:37.179Z,1004.37
2018-12-24T02:19:37.167Z,1004.39
2018-12-24T02:20:37.156Z,1004.48
2018-12-24T02:21:37.146Z,1004.52
2018-12-24T02:22:37.141Z,1004.51
2018-12-24T02:23:37.123Z,1004.59
2018-12-24T02:24:37.115Z,1004.55
2018-12-24T02:25:37.102Z,1004.52
2018-12-24T02:26:37.092Z,1004.56
2018-12-24T02:27:37.081Z,1004.60
2018-12-24T02:28:37.071Z,1004.66
2018-12-24T02:29:37.060Z,1004.57
2018-12-24T02:30:37.049Z,1004.57
2018-12-24T02:31:37.039Z,1004.65
2018-12-24T02:32:37.026Z,1004.63
2018-12-24T02:33:37.014Z,1004.69
2018-12-24T02:34:37.004Z,1004.72
2018-12-24T02:35:36.993Z,1004.73
2018-12-24T02:36:36.984Z,1004.77
2018-12-24T02:37:36.970Z,1004.70
2018-12-24T02:38:36.959Z,1004.73
2018-12-24T02:39:36.955Z,1004.79
2018-12-24T02:40:36.943Z,1004.74
2018-12-24T02:41:36.927Z,1004.76
2018-12-24T02:42:36.915Z,1004.84
2018-12-24T02:43:36.904Z,1004.84
2018-12-24T02:44:36.895Z,1004.86
2018-12-24T02:45:36.885Z,1004.86
2018-12-24T02:46:36.871Z,1004.88
2018-12-24T02:47:36.859Z,1004.89
2018-12-24T02:48:36.852Z,1004.92
2018-12-24T02:49:36.838Z,1004.97
2018-12-24T02:50:36.827Z,1004.99
2018-12-24T02:51:36.816Z,1005.01
2018-12-24T02:52:36.809Z,1005.00
2018-12-24T02:53:36.796Z,1005.01
2018-12-24T02:54:36.782Z,1004.94
2018-12-24T02:55:36.770Z,1004.96
2018-12-24T02:56:36.762Z,1004.98
2018-12-24T02:57:36.749Z,1005.02
2018-12-24T02:58:36.738Z,1004.99
2018-12-24T02:59:36.729Z,1005.04
2018-12-24T03:00:36.718Z,1005.03
2018-12-24T03:01:36.709Z,1005.04
2018-12-24T03:02:36.694Z,1005.08
2018-12-24T03:03:36.685Z,1005.08
2018-12-24T03:04:36.676Z,1005.11
2018-12-24T03:05:36.665Z,1005.17
2018-12-24T03:06:36.652Z,1005.17
2018-12-24T03:07:36.640Z,1005.20
2018-12-24T03:08:36.633Z,1005.13
2018-12-24T03:09:36.620Z,1005.18
2018-12-24T03:10:36.609Z,1005.22
2018-12-24T03:11:36.599Z,1005.26
2018-12-24T03:12:36.589Z,1005.27
2018-12-24T03:13:36.592Z,1005.27
2018-12-24T03:14:36.567Z,1005.31
2018-12-24T03:15:36.555Z,1005.26
2018-12-24T03:16:36.553Z,1005.28
2018-12-24T03:17:36.536Z,1005.27
2018-12-24T03:18:36.523Z,1005.33
2018-12-24T03:19:36.513Z,1005.34
2018-12-24T03:20:36.502Z,1005.37
2018-12-24T03:21:36.489Z,1005.34
2018-12-24T03:22:36.482Z,1005.43
2018-12-24T03:23:36.468Z,1005.47
2018-12-24T03:24:36.460Z,1005.46
2018-12-24T03:25:36.447Z,1005.49
2018-12-24T03:26:36.435Z,1005.48
2018-12-24T03:27:36.426Z,1005.51
2018-12-24T03:28:36.416Z,1005.54
2018-12-24T03:29:36.404Z,1005.57
2018-12-24T03:30:36.579Z,1005.58
2018-12-24T03:31:36.398Z,1005.55
2018-12-24T03:32:36.372Z,1005.54
2018-12-24T03:33:36.364Z,1005.61
2018-12-24T03:34:36.350Z,1005.61
2018-12-24T03:35:36.341Z,1005.63
2018-12-24T03:36:36.326Z,1005.72
2018-12-24T03:37:36.320Z,1005.68
2018-12-24T03:38:36.303Z,1005.74
2018-12-24T03:39:36.293Z,1005.77
2018-12-24T03:40:36.283Z,1005.82
2018-12-24T03:41:36.270Z,1005.80
2018-12-24T03:42:36.261Z,1005.84
2018-12-24T03:43:36.252Z,1005.83
2018-12-24T03:44:36.253Z,1005.85
2018-12-24T03:45:36.239Z,1005.88
2018-12-24T03:46:36.219Z,1005.89
2018-12-24T03:47:36.209Z,1005.92
2018-12-24T03:48:36.195Z,1005.95
2018-12-24T03:49:36.186Z,1005.92
2018-12-24T03:50:36.174Z,1005.96
2018-12-24T03:51:36.165Z,1005.96
2018-12-24T03:52:36.152Z,1005.95
2018-12-24T03:53:36.141Z,1005.94
2018-12-24T03:54:36.132Z,1005.93
2018-12-24T03:55:36.121Z,1005.95
2018-12-24T03:56:36.182Z,1005.93
2018-12-24T03:57:36.096Z,1005.94
2018-12-24T03:58:36.088Z,1005.98
2018-12-24T03:59:36.075Z,1005.96
2018-12-24T04:00:36.063Z,1006.05
2018-12-24T04:01:36.053Z,1006.02
2018-12-24T04:02:36.042Z,1006.12
2018-12-24T04:03:36.031Z,1006.06
2018-12-24T04:04:36.028Z,1006.15
2018-12-24T04:05:36.009Z,1006.15
2018-12-24T04:06:35.999Z,1006.23
2018-12-24T04:07:35.989Z,1006.18
2018-12-24T04:08:35.981Z,1006.20
2018-12-24T04:09:35.968Z,1006.18
2018-12-24T04:10:35.957Z,1006.21
2018-12-24T04:11:35.942Z,1006.24
2018-12-24T04:12:35.933Z,1006.30
2018-12-24T04:13:35.920Z,1006.31
2018-12-24T04:14:35.916Z,1006.28
2018-12-24T04:15:35.897Z,1006.32
2018-12-24T04:16:35.889Z,1006.32
2018-12-24T04:17:35.882Z,1006.34
2018-12-24T04:18:35.888Z,1006.34
2018-12-24T04:19:35.867Z,1006.34
2018-12-24T04:20:35.845Z,1006.35
2018-12-24T04:21:35.832Z,1006.38
2018-12-24T04:22:35.822Z,1006.38
2018-12-24T04:23:35.814Z,1006.37
2018-12-24T04:24:35.809Z,1006.44
2018-12-24T04:25:35.792Z,1006.46
2018-12-24T04:26:35.778Z,1006.56
2018-12-24T04:27:41.722Z,1006.52
2018-12-24T04:28:36.786Z,1006.58
2018-12-24T04:29:35.745Z,1006.61
2018-12-24T04:30:35.734Z,1006.68
2018-12-24T04:31:35.724Z,1006.70
2018-12-24T04:32:35.715Z,1006.76
2018-12-24T04:33:35.703Z,1006.83
2018-12-24T04:34:35.690Z,1006.82
2018-12-24T04:35:35.683Z,1006.89
2018-12-24T04:36:35.671Z,1006.93
2018-12-24T04:37:35.657Z,1006.93
2018-12-24T04:38:35.649Z,1006.97
2018-12-24T04:39:35.649Z,1007.04
2018-12-24T04:40:35.626Z,1007.02
2018-12-24T04:41:35.615Z,1007.04
2018-12-24T04:42:35.603Z,1007.06
2018-12-24T04:43:35.594Z,1007.06
2018-12-24T04:44:35.583Z,1007.05
2018-12-24T04:45:35.572Z,1007.06
2018-12-24T04:46:35.560Z,1007.07
2018-12-24T04:47:35.551Z,1007.04
2018-12-24T04:48:35.538Z,1007.09
2018-12-24T04:49:35.527Z,1007.10
2018-12-24T04:50:35.518Z,1007.15
2018-12-24T04:51:35.506Z,1007.18
2018-12-24T04:52:35.496Z,1007.19
2018-12-24T04:53:35.483Z,1007.22
2018-12-24T04:54:35.473Z,1007.21
2018-12-24T04:55:35.465Z,1007.20
2018-12-24T04:56:35.451Z,1007.17
2018-12-24T04:57:35.442Z,1007.20
2018-12-24T04:58:35.430Z,1007.25
2018-12-24T04:59:35.423Z,1007.29
2018-12-24T05:00:35.409Z,1007.29
2018-12-24T05:01:35.397Z,1007.33
2018-12-24T05:02:35.388Z,1007.37
2018-12-24T05:03:35.373Z,1007.40
2018-12-24T05:04:35.363Z,1007.36
2018-12-24T05:05:35.353Z,1007.40
2018-12-24T05:06:35.342Z,1007.45
2018-12-24T05:07:35.330Z,1007.42
2018-12-24T05:08:35.321Z,1007.44
2018-12-24T05:09:35.309Z,1007.47
2018-12-24T05:10:35.301Z,1007.48
2018-12-24T05:11:35.288Z,1007.51
2018-12-24T05:12:35.276Z,1007.58
2018-12-24T05:13:40.806Z,1007.69
2018-12-24T05:14:35.256Z,1007.75
2018-12-24T05:15:35.242Z,1007.80
2018-12-24T05:16:35.232Z,1007.80
2018-12-24T05:17:35.221Z,1007.82
2018-12-24T05:18:35.211Z,1007.88
2018-12-24T05:19:35.197Z,1007.89
2018-12-24T05:20:35.188Z,1007.98
2018-12-24T05:21:35.177Z,1007.97
2018-12-24T05:22:35.166Z,1007.99
2018-12-24T05:23:35.156Z,1008.01
2018-12-24T05:24:35.145Z,1008.14
2018-12-24T05:25:35.132Z,1008.04
2018-12-24T05:26:35.122Z,1008.08
2018-12-24T05:27:35.112Z,1008.13
2018-12-24T05:28:35.102Z,1008.11
2018-12-24T05:29:35.089Z,1008.10
2018-12-24T05:30:35.080Z,1008.14
2018-12-24T05:31:35.070Z,1008.21
2018-12-24T05:32:35.059Z,1008.25
2018-12-24T05:33:35.046Z,1008.29
2018-12-24T05:34:35.036Z,1008.25
2018-12-24T05:35:35.024Z,1008.33
2018-12-24T05:36:35.015Z,1008.35
2018-12-24T05:37:35.001Z,1008.35
2018-12-24T05:38:34.990Z,1008.37
2018-12-24T05:39:34.979Z,1008.42
2018-12-24T05:40:34.968Z,1008.42
2018-12-24T05:41:34.958Z,1008.44
2018-12-24T05:42:34.947Z,1008.43
2018-12-24T05:43:34.936Z,1008.47
2018-12-24T05:44:34.925Z,1008.49
2018-12-24T05:45:34.914Z,1008.57
2018-12-24T05:46:34.902Z,1008.55
2018-12-24T05:47:34.892Z,1008.57
2018-12-24T05:48:34.882Z,1008.56
2018-12-24T05:49:34.868Z,1008.60
2018-12-24T05:50:34.860Z,1008.61
2018-12-24T05:51:34.848Z,1008.69
2018-12-24T05:52:34.835Z,1008.71
2018-12-24T05:53:34.929Z,1008.73
2018-12-24T05:54:34.814Z,1008.74
2018-12-24T05:55:34.806Z,1008.80
2018-12-24T05:56:34.794Z,1008.82
2018-12-24T05:57:34.781Z,1008.82
2018-12-24T05:58:34.770Z,1008.82
2018-12-24T05:59:34.757Z,1008.87
2018-12-24T06:00:34.746Z,1008.90
2018-12-24T06:01:34.739Z,1008.90
2018-12-24T06:02:34.796Z,1008.89
2018-12-24T06:03:34.712Z,1008.94
2018-12-24T06:04:34.706Z,1008.99
2018-12-24T06:05:34.693Z,1009.03
2018-12-24T06:06:34.681Z,1009.07
2018-12-24T06:07:34.771Z,1009.09
2018-12-24T06:08:34.659Z,1009.10
2018-12-24T06:09:34.648Z,1009.13
2018-12-24T06:10:34.637Z,1009.14
2018-12-24T06:11:34.625Z,1009.18
2018-12-24T06:12:34.614Z,1009.15
2018-12-24T06:13:34.603Z,1009.18
2018-12-24T06:14:34.594Z,1009.19
2018-12-24T06:15:34.583Z,1009.22
2018-12-24T06:16:34.571Z,1009.29
2018-12-24T06:17:34.560Z,1009.27
2018-12-24T06:18:34.549Z,1009.31
2018-12-24T06:19:34.541Z,1009.30
2018-12-24T06:20:37.750Z,1009.32
2018-12-24T06:21:34.517Z,1009.30
2018-12-24T06:22:34.504Z,1009.31
2018-12-24T06:23:34.494Z,1009.37
2018-12-24T06:24:34.489Z,1009.41
2018-12-24T06:25:34.482Z,1009.41
2018-12-24T06:26:34.462Z,1009.42
2018-12-24T06:27:34.453Z,1009.43
2018-12-24T06:28:34.439Z,1009.43
2018-12-24T06:29:34.429Z,1009.42
2018-12-24T06:30:34.421Z,1009.45
2018-12-24T06:31:35.794Z,1009.46
2018-12-24T06:32:34.394Z,1009.52
2018-12-24T06:33:34.384Z,1009.53
2018-12-24T06:34:34.374Z,1009.52
2018-12-24T06:35:34.365Z,1009.57
2018-12-24T06:36:34.352Z,1009.64
2018-12-24T06:37:34.342Z,1009.66
2018-12-24T06:38:34.329Z,1009.59
2018-12-24T06:39:34.320Z,1009.59
2018-12-24T06:40:34.309Z,1009.65
2018-12-24T06:41:34.298Z,1009.67
2018-12-24T06:42:34.298Z,1009.78
2018-12-24T06:43:34.273Z,1009.82
2018-12-24T06:44:34.266Z,1009.82
2018-12-24T06:45:34.254Z,1009.86
2018-12-24T06:46:34.241Z,1009.89
2018-12-24T06:47:34.234Z,1009.90
2018-12-24T06:48:34.221Z,1009.96
2018-12-24T06:49:34.208Z,1010.06
2018-12-24T06:50:34.198Z,1010.06
2018-12-24T06:51:34.185Z,1010.03
2018-12-24T06:52:34.175Z,1010.07
2018-12-24T06:53:34.165Z,1010.02
2018-12-24T06:54:34.157Z,1010.11
2018-12-24T06:55:34.144Z,1010.10
2018-12-24T06:56:34.131Z,1010.08
2018-12-24T06:57:34.122Z,1010.20
2018-12-24T06:58:34.111Z,1010.11
2018-12-24T06:59:34.100Z,1010.21
2018-12-24T07:00:34.090Z,1010.21
2018-12-24T07:01:34.078Z,1010.19
2018-12-24T07:02:34.067Z,1010.24
2018-12-24T07:03:34.056Z,1010.33
2018-12-24T07:04:34.043Z,1010.27
2018-12-24T07:05:34.034Z,1010.31
2018-12-24T07:06:34.023Z,1010.29
2018-12-24T07:07:34.012Z,1010.35
2018-12-24T07:08:34.001Z,1010.31
2018-12-24T07:09:33.990Z,1010.36
2018-12-24T07:10:33.980Z,1010.36
2018-12-24T07:11:33.969Z,1010.43
2018-12-24T07:12:33.959Z,1010.46
2018-12-24T07:13:33.952Z,1010.49
2018-12-24T07:14:33.933Z,1010.56
2018-12-24T07:15:33.922Z,1010.54
2018-12-24T07:16:33.912Z,1010.59
2018-12-24T07:17:33.904Z,1010.62
2018-12-24T07:18:33.927Z,1010.61
2018-12-24T07:19:33.882Z,1010.61
2018-12-24T07:20:33.869Z,1010.61
2018-12-24T07:21:33.858Z,1010.67
2018-12-24T07:22:33.851Z,1010.70
2018-12-24T07:23:33.837Z,1010.68
2018-12-24T07:24:33.823Z,1010.70
2018-12-24T07:25:33.815Z,1010.72
2018-12-24T07:26:33.804Z,1010.72
2018-12-24T07:27:33.791Z,1010.78
2018-12-24T07:28:33.781Z,1010.78
2018-12-24T07:29:33.771Z,1010.85
2018-12-24T07:30:33.760Z,1010.86
2018-12-24T07:31:33.749Z,1010.92
2018-12-24T07:32:33.739Z,1010.92
2018-12-24T07:33:33.725Z,1010.93
2018-12-24T07:34:33.741Z,1010.91
2018-12-24T07:35:33.703Z,1010.94
2018-12-24T07:36:33.693Z,1010.89
2018-12-24T07:37:33.682Z,1010.92
2018-12-24T07:38:33.671Z,1010.91
2018-12-24T07:39:33.661Z,1010.88
2018-12-24T07:40:33.650Z,1010.91
2018-12-24T07:41:33.639Z,1010.87
2018-12-24T07:42:33.628Z,1010.91
2018-12-24T07:43:33.615Z,1010.86
2018-12-24T07:44:33.607Z,1010.89
2018-12-24T07:45:33.596Z,1010.89
2018-12-24T07:46:33.586Z,1010.90
2018-12-24T07:47:33.571Z,1010.93
2018-12-24T07:48:33.560Z,1010.95
2018-12-24T07:49:33.554Z,1011.03
2018-12-24T07:50:33.540Z,1011.05
2018-12-24T07:51:33.528Z,1011.07
2018-12-24T07:52:33.520Z,1010.95
2018-12-24T07:53:35.287Z,1010.99
2018-12-24T07:54:33.496Z,1011.07
2018-12-24T07:55:33.485Z,1011.08
2018-12-24T07:56:33.475Z,1011.15
2018-12-24T07:57:33.464Z,1011.13
2018-12-24T07:58:33.452Z,1011.15
2018-12-24T07:59:33.440Z,1011.16
2018-12-24T08:00:33.430Z,1011.22
2018-12-24T08:01:33.420Z,1011.17
2018-12-24T08:02:33.409Z,1011.21
2018-12-24T08:03:33.401Z,1011.22
2018-12-24T08:04:33.388Z,1011.23
2018-12-24T08:05:33.381Z,1011.23
2018-12-24T08:06:33.364Z,1011.24
2018-12-24T08:07:33.356Z,1011.29
2018-12-24T08:08:33.345Z,1011.31
2018-12-24T08:09:33.331Z,1011.31
2018-12-24T08:10:33.324Z,1011.38
2018-12-24T08:11:33.312Z,1011.35
2018-12-24T08:12:33.300Z,1011.41
2018-12-24T08:13:33.288Z,1011.41
2018-12-24T08:14:33.495Z,1011.43
2018-12-24T08:15:33.270Z,1011.46
2018-12-24T08:16:33.254Z,1011.45
2018-12-24T08:17:33.246Z,1011.49
2018-12-24T08:18:33.234Z,1011.51
2018-12-24T08:19:33.223Z,1011.55
2018-12-24T08:20:33.210Z,1011.52
2018-12-24T08:21:33.204Z,1011.53
2018-12-24T08:22:33.190Z,1011.59
2018-12-24T08:23:33.179Z,1011.57
2018-12-24T08:24:33.171Z,1011.62
2018-12-24T08:25:33.156Z,1011.60
2018-12-24T08:26:33.147Z,1011.62
2018-12-24T08:27:33.136Z,1011.72
2018-12-24T08:28:33.126Z,1011.71
2018-12-24T08:29:33.114Z,1011.75
2018-12-24T08:30:33.103Z,1011.73
2018-12-24T08:31:33.092Z,1011.72
2018-12-24T08:32:33.196Z,1011.69
2018-12-24T08:33:33.071Z,1011.69
2018-12-24T08:34:33.059Z,1011.74
2018-12-24T08:35:33.049Z,1011.76
2018-12-24T08:36:33.039Z,1011.81
2018-12-24T08:37:33.025Z,1011.79
2018-12-24T08:38:33.018Z,1011.79
2018-12-24T08:39:33.005Z,1011.86
2018-12-24T08:40:32.998Z,1011.85
2018-12-24T08:41:32.983Z,1011.85
2018-12-24T08:42:32.973Z,1011.88
2018-12-24T08:43:32.960Z,1011.83
2018-12-24T08:44:41.580Z,1011.91
2018-12-24T08:45:54.122Z,1011.95
2018-12-24T08:46:54.108Z,1011.97
2018-12-24T08:47:54.098Z,1012.04
2018-12-24T08:48:54.089Z,1012.04
2018-12-24T08:49:54.085Z,1012.09
2018-12-24T08:50:54.067Z,1012.07
2018-12-24T08:51:54.056Z,1012.11
2018-12-24T08:52:54.044Z,1012.13
2018-12-24T08:53:54.032Z,1012.21
2018-12-24T08:54:54.024Z,1012.27
2018-12-24T08:55:54.012Z,1012.31
2018-12-24T08:56:54.000Z,1012.33
2018-12-24T08:57:53.988Z,1012.35
2018-12-24T08:58:53.981Z,1012.38
2018-12-24T08:59:53.966Z,1012.36
2018-12-24T09:00:53.957Z,1012.37
2018-12-24T09:01:53.945Z,1012.45
2018-12-24T09:02:53.936Z,1012.47
2018-12-24T09:03:53.923Z,1012.52
2018-12-24T09:04:53.911Z,1012.61
2018-12-24T09:05:53.902Z,1012.59
2018-12-24T09:06:53.889Z,1012.62
2018-12-24T09:07:53.878Z,1012.60
2018-12-24T09:08:53.869Z,1012.64
2018-12-24T09:09:53.857Z,1012.73
2018-12-24T09:10:53.848Z,1012.74
2018-12-24T09:11:53.836Z,1012.72
2018-12-24T09:12:53.825Z,1012.80
2018-12-24T09:13:53.813Z,1012.78
2018-12-24T09:14:53.803Z,1012.83
2018-12-24T09:15:53.802Z,1012.87
2018-12-24T09:16:53.780Z,1012.89
2018-12-24T09:17:53.772Z,1012.89
2018-12-24T09:18:53.760Z,1012.99
2018-12-24T09:19:53.750Z,1013.05
2018-12-24T09:20:53.736Z,1013.07
2018-12-24T09:21:53.727Z,1013.07
2018-12-24T09:22:53.717Z,1013.11
2018-12-24T09:23:53.704Z,1013.18
2018-12-24T09:24:53.693Z,1013.15
2018-12-24T09:25:53.682Z,1013.13
2018-12-24T09:26:53.672Z,1013.14
2018-12-24T09:27:53.661Z,1013.14
2018-12-24T09:28:53.652Z,1013.15
2018-12-24T09:29:53.639Z,1013.15
2018-12-24T09:30:53.629Z,1013.14
2018-12-24T09:31:53.620Z,1013.16
2018-12-24T09:32:53.606Z,1013.17
2018-12-24T09:33:53.595Z,1013.18
2018-12-24T09:34:53.597Z,1013.24
2018-12-24T09:35:53.750Z,1013.25
2018-12-24T09:36:53.564Z,1013.27
2018-12-24T09:37:53.550Z,1013.25
2018-12-24T09:38:53.540Z,1013.27
2018-12-24T09:39:53.534Z,1013.36
2018-12-24T09:40:53.517Z,1013.38
2018-12-24T09:41:53.511Z,1013.38
2018-12-24T09:42:53.497Z,1013.40
2018-12-24T09:43:53.487Z,1013.40
2018-12-24T09:44:58.886Z,1013.47
2018-12-24T09:45:53.464Z,1013.46
2018-12-24T09:46:53.452Z,1013.59
2018-12-24T09:47:53.444Z,1013.56
2018-12-24T09:48:53.430Z,1013.64
2018-12-24T09:49:53.424Z,1013.62
2018-12-24T09:50:53.409Z,1013.64
2018-12-24T09:51:53.400Z,1013.73
2018-12-24T09:52:53.387Z,1013.71
2018-12-24T09:53:53.377Z,1013.81
2018-12-24T09:54:53.366Z,1013.71
2018-12-24T09:55:53.356Z,1013.82
2018-12-24T09:56:53.346Z,1013.85
2018-12-24T09:57:53.333Z,1013.91
2018-12-24T09:58:53.325Z,1013.90
2018-12-24T09:59:53.313Z,1013.89
2018-12-24T10:00:53.303Z,1013.89
2018-12-24T10:01:53.294Z,1013.96
2018-12-24T10:02:53.287Z,1013.86
2018-12-24T10:03:53.270Z,1013.98
2018-12-24T10:04:53.259Z,1013.93
2018-12-24T10:05:53.248Z,1013.97
2018-12-24T10:06:53.237Z,1013.98
2018-12-24T10:07:53.225Z,1013.95
2018-12-24T10:08:53.214Z,1013.99
2018-12-24T10:09:53.202Z,1014.02
2018-12-24T10:10:53.194Z,1014.06
2018-12-24T10:11:53.181Z,1014.14
2018-12-24T10:12:53.171Z,1014.13
2018-12-24T10:13:53.160Z,1014.19
2018-12-24T10:14:53.148Z,1014.19
2018-12-24T10:15:53.137Z,1014.25
2018-12-24T10:16:53.128Z,1014.25
2018-12-24T10:17:53.118Z,1014.36
2018-12-24T10:18:53.105Z,1014.37
2018-12-24T10:19:53.093Z,1014.43
2018-12-24T10:20:53.085Z,1014.46
2018-12-24T10:21:53.077Z,1014.47
2018-12-24T10:22:53.061Z,1014.48
2018-12-24T10:23:53.053Z,1014.43
2018-12-24T10:24:53.041Z,1014.51
2018-12-24T10:25:53.029Z,1014.51
2018-12-24T10:26:53.019Z,1014.51
2018-12-24T10:27:53.007Z,1014.54
2018-12-24T10:28:52.998Z,1014.46
2018-12-24T10:29:52.987Z,1014.55
2018-12-24T10:30:52.974Z,1014.60
2018-12-24T10:31:52.964Z,1014.60
2018-12-24T10:32:52.953Z,1014.60
2018-12-24T10:33:52.940Z,1014.58
2018-12-24T10:34:52.929Z,1014.60
2018-12-24T10:35:52.919Z,1014.56
2018-12-24T10:36:52.909Z,1014.58
2018-12-24T10:37:52.898Z,1014.58
2018-12-24T10:38:52.888Z,1014.55
2018-12-24T10:39:52.875Z,1014.50
2018-12-24T10:40:52.866Z,1014.55
2018-12-24T10:41:52.857Z,1014.61
2018-12-24T10:42:52.843Z,1014.59
2018-12-24T10:43:52.833Z,1014.54
2018-12-24T10:44:52.822Z,1014.57
2018-12-24T10:45:52.810Z,1014.52
2018-12-24T10:46:52.802Z,1014.51
2018-12-24T10:47:52.787Z,1014.55
2018-12-24T10:48:52.779Z,1014.58
2018-12-24T10:49:52.766Z,1014.56
2018-12-24T10:50:52.755Z,1014.57
2018-12-24T10:51:52.746Z,1014.50
2018-12-24T10:52:52.735Z,1014.52
2018-12-24T10:53:52.727Z,1014.52
2018-12-24T10:54:52.712Z,1014.53
2018-12-24T10:55:52.702Z,1014.49
2018-12-24T10:56:52.817Z,1014.48
2018-12-24T10:57:52.680Z,1014.47
2018-12-24T10:58:52.669Z,1014.49
2018-12-24T10:59:52.659Z,1014.46
2018-12-24T11:00:52.648Z,1014.49
2018-12-24T11:01:52.639Z,1014.47
2018-12-24T11:02:52.627Z,1014.50
2018-12-24T11:03:52.616Z,1014.46
2018-12-24T11:04:52.603Z,1014.46
2018-12-24T11:05:52.594Z,1014.46
2018-12-24T11:06:52.583Z,1014.50
2018-12-24T11:07:52.573Z,1014.50
2018-12-24T11:08:52.559Z,1014.46
2018-12-24T11:09:52.550Z,1014.50
2018-12-24T11:10:52.537Z,1014.49
2018-12-24T11:11:52.526Z,1014.49
2018-12-24T11:12:52.516Z,1014.45
2018-12-24T11:13:52.508Z,1014.43
2018-12-24T11:14:52.496Z,1014.36
2018-12-24T11:15:52.489Z,1014.35
2018-12-24T11:16:52.473Z,1014.42
2018-12-24T11:17:52.463Z,1014.34
2018-12-24T11:18:52.451Z,1014.40
2018-12-24T11:19:53.759Z,1014.39
2018-12-24T11:20:52.428Z,1014.39
2018-12-24T11:21:52.419Z,1014.26
2018-12-24T11:22:52.407Z,1014.31
2018-12-24T11:23:52.397Z,1014.31
2018-12-24T11:24:52.384Z,1014.27
2018-12-24T11:25:52.374Z,1014.23
2018-12-24T11:26:52.363Z,1014.23
2018-12-24T11:27:52.353Z,1014.23
2018-12-24T11:28:52.345Z,1014.25
2018-12-24T11:29:52.329Z,1014.27
2018-12-24T11:30:52.320Z,1014.28
2018-12-24T11:31:52.307Z,1014.30
2018-12-24T11:32:52.296Z,1014.30
2018-12-24T11:33:52.289Z,1014.33
2018-12-24T11:34:52.273Z,1014.38
2018-12-24T11:35:52.265Z,1014.29
2018-12-24T11:36:52.256Z,1014.39
2018-12-24T11:37:52.242Z,1014.40
2018-12-24T11:38:52.232Z,1014.40
2018-12-24T11:39:52.218Z,1014.42
2018-12-24T11:40:52.209Z,1014.50
2018-12-24T11:41:52.199Z,1014.53
2018-12-24T11:42:52.187Z,1014.52
2018-12-24T11:43:52.175Z,1014.44
2018-12-24T11:44:52.166Z,1014.50
2018-12-24T11:45:52.155Z,1014.50
2018-12-24T11:46:52.144Z,1014.44
2018-12-24T11:47:52.130Z,1014.39
2018-12-24T11:48:52.123Z,1014.46
2018-12-24T11:49:52.111Z,1014.53
2018-12-24T11:50:52.098Z,1014.52
2018-12-24T11:51:52.089Z,1014.52
2018-12-24T11:52:52.079Z,1014.55
2018-12-24T11:53:52.068Z,1014.51
2018-12-24T11:54:52.055Z,1014.58
2018-12-24T11:55:52.046Z,1014.53
2018-12-24T11:56:52.033Z,1014.56
2018-12-24T11:57:52.024Z,1014.54
2018-12-24T11:58:52.014Z,1014.59
2018-12-24T11:59:52.003Z,1014.60
2018-12-24T12:00:51.992Z,1014.64
2018-12-24T12:01:51.983Z,1014.63
2018-12-24T12:02:51.970Z,1014.66
2018-12-24T12:03:51.960Z,1014.68
2018-12-24T12:04:51.950Z,1014.65
2018-12-24T12:05:53.904Z,1014.66